Time;durP1;ratioP1;P1;durP2;ratioP2;P2;SDS_P1;SDS_P2;PMS_P1;PMS_P2;Temp;Humidity;BMP_temperature;BMP_pressure;BME280_temperature;BME280_humidity;BME280_pressure;Samples;Min_cycle;Max_cycle;Signal;HPM_P1;HPM_P2
2023/08/23 00:01:10;;;;;;;21.02;13.15;;;;;;;26.67;54.06;100684.94;5091134;28;20036;-76
2023/08/23 00:03:36;;;;;;;22.45;11.70;;;;;;;26.72;54.14;100718.22;5091163;28;20136;-73
2023/08/23 00:06:02;;;;;;;22.38;13.20;;;;;;;26.69;54.45;100707.66;5091222;28;20039;-75
2023/08/23 00:08:27;;;;;;;21.45;12.70;;;;;;;26.71;55.01;100716.53;5091248;28;20031;-74
2023/08/23 00:10:54;;;;;;;27.55;12.07;;;;;;;26.73;54.86;100708.00;5090635;28;20454;-77
2023/08/23 00:13:20;;;;;;;27.85;14.10;;;;;;;26.68;55.33;100716.97;5091163;28;20044;-73
2023/08/23 00:15:45;;;;;;;27.98;14.45;;;;;;;26.70;55.81;100709.31;5091271;28;20020;-74
2023/08/23 00:18:11;;;;;;;33.05;14.65;;;;;;;26.69;55.64;100715.94;5090322;28;20043;-75
2023/08/23 00:20:36;;;;;;;23.73;13.98;;;;;;;26.70;55.43;100714.84;5091119;28;20024;-75
2023/08/23 00:23:02;;;;;;;20.23;13.85;;;;;;;26.69;55.48;100707.66;5091227;28;20032;-75
2023/08/23 00:25:27;;;;;;;22.08;12.93;;;;;;;26.68;55.46;100714.22;5090826;28;20433;-75
2023/08/23 00:27:52;;;;;;;20.58;12.95;;;;;;;26.74;55.19;100712.47;5090627;28;20124;-76
2023/08/23 00:30:18;;;;;;;26.33;14.00;;;;;;;26.71;54.98;100699.13;5091185;28;20052;-75
2023/08/23 00:32:43;;;;;;;26.80;14.60;;;;;;;26.76;55.04;100713.91;5090473;28;20081;-75
2023/08/23 00:35:09;;;;;;;21.48;13.65;;;;;;;26.64;55.49;100704.72;5090313;28;20642;-75
2023/08/23 00:37:34;;;;;;;32.30;14.18;;;;;;;26.51;55.83;100696.59;5090823;28;20494;-75
2023/08/23 00:40:00;;;;;;;26.80;14.82;;;;;;;26.60;56.18;100713.69;5090434;28;20030;-75
2023/08/23 00:42:25;;;;;;;27.55;15.48;;;;;;;26.47;56.37;100704.47;5089468;28;20031;-75
2023/08/23 00:44:50;;;;;;;22.73;13.57;;;;;;;26.45;56.42;100694.72;5090764;28;20032;-75
2023/08/23 00:47:16;;;;;;;32.97;14.90;;;;;;;26.51;56.67;100718.66;5090355;28;20024;-74
2023/08/23 00:49:42;;;;;;;21.92;14.80;;;;;;;26.52;56.45;100715.66;5090134;28;20024;-74
2023/08/23 00:52:07;;;;;;;25.50;14.77;;;;;;;26.43;56.82;100724.44;5090390;28;20074;-74
2023/08/23 00:54:33;;;;;;;27.85;15.07;;;;;;;26.35;56.88;100695.25;5090231;28;20055;-75
2023/08/23 00:57:02;;;;;;;29.52;14.10;;;;;;;26.32;57.03;100694.84;5090076;28;20024;-76
2023/08/23 00:59:30;;;;;;;27.10;14.88;;;;;;;26.29;56.93;100687.03;5090227;28;20028;-74
2023/08/23 01:01:56;;;;;;;16.83;13.75;;;;;;;26.34;56.76;100692.69;5088840;28;20020;-75
2023/08/23 01:04:21;;;;;;;20.52;14.50;;;;;;;26.43;56.88;100722.53;5089751;28;20073;-76
2023/08/23 01:07:14;;;;;;;28.60;14.32;;;;;;;26.49;56.69;100718.00;5089639;28;20028;-74
2023/08/23 01:09:39;;;;;;;28.25;15.13;;;;;;;26.56;56.70;100723.47;5027322;28;20037;-74
2023/08/23 01:12:13;;;;;;;31.52;15.00;;;;;;;26.43;56.46;100710.66;5026664;28;20060;-73
2023/08/23 01:14:49;;;;;;;30.00;15.60;;;;;;;26.52;56.76;100709.28;5027332;28;20040;-73
2023/08/23 01:17:18;;;;;;;22.58;14.50;;;;;;;26.57;56.87;100722.41;5026964;28;20497;-73
2023/08/23 01:19:44;;;;;;;22.95;15.60;;;;;;;26.55;56.98;100711.59;5026749;28;20033;-74
2023/08/23 01:22:22;;;;;;;27.73;16.58;;;;;;;26.35;57.12;100688.88;5027040;28;20052;-75
2023/08/23 01:24:48;;;;;;;27.10;15.77;;;;;;;26.47;57.19;100712.72;5026906;28;20483;-74
2023/08/23 01:27:16;;;;;;;22.08;14.80;;;;;;;26.43;56.98;100702.38;5026924;28;20041;-73
2023/08/23 01:29:43;;;;;;;26.17;13.93;;;;;;;26.52;56.72;100712.03;5027076;28;20048;-75
2023/08/23 01:32:18;;;;;;;23.88;14.30;;;;;;;26.51;56.78;100711.19;5026613;28;20422;-74
2023/08/23 01:34:57;;;;;;;22.63;15.23;;;;;;;26.50;56.59;100703.16;5027174;28;20116;-74
2023/08/23 01:37:24;;;;;;;33.15;15.60;;;;;;;26.41;57.00;100716.41;5026911;28;20038;-75
2023/08/23 01:39:53;;;;;;;33.80;16.73;;;;;;;26.41;56.70;100716.41;5027092;28;20112;-75
2023/08/23 01:42:22;;;;;;;23.88;14.48;;;;;;;26.37;56.91;100706.88;5030041;28;20473;-74
2023/08/23 01:44:50;;;;;;;22.25;15.10;;;;;;;26.37;56.71;100714.31;5037022;28;20075;-75
2023/08/23 01:47:16;;;;;;;19.75;13.32;;;;;;;26.28;56.56;100704.63;5087607;28;20466;-73
2023/08/23 01:49:41;;;;;;;27.35;13.60;;;;;;;26.33;56.37;100702.03;5094096;28;20479;-75
2023/08/23 01:52:07;;;;;;;15.80;12.73;;;;;;;26.35;56.31;100705.41;5093778;28;20035;-77
2023/08/23 01:54:32;;;;;;;26.13;14.15;;;;;;;26.23;56.44;100680.50;5093836;28;20077;-74
2023/08/23 01:56:58;;;;;;;30.92;15.57;;;;;;;26.35;56.23;100705.41;5093033;28;20036;-75
2023/08/23 01:59:23;;;;;;;22.83;12.77;;;;;;;26.36;56.23;100712.63;5090911;28;20085;-75
2023/08/23 02:01:48;;;;;;;26.30;15.15;;;;;;;26.21;56.25;100685.38;5089808;28;20373;-75
2023/08/23 02:04:14;;;;;;;28.15;13.63;;;;;;;26.35;56.24;100710.94;5089270;28;20102;-74
2023/08/23 02:06:40;;;;;;;31.35;13.60;;;;;;;26.37;56.21;100709.63;5069797;28;20044;-74
2023/08/23 02:09:05;;;;;;;21.33;13.45;;;;;;;26.33;55.97;100697.34;5088625;28;20024;-74
2023/08/23 02:11:32;;;;;;;25.33;14.80;;;;;;;26.36;56.27;100701.59;5088601;28;20052;-74
2023/08/23 02:13:59;;;;;;;21.58;13.93;;;;;;;26.37;56.19;100704.13;5089054;28;20044;-75
2023/08/23 02:16:24;;;;;;;32.25;14.45;;;;;;;26.33;56.10;100691.84;5089347;28;20522;-74
2023/08/23 02:18:50;;;;;;;22.35;15.30;;;;;;;26.33;56.18;100697.34;5088697;28;20031;-73
2023/08/23 02:21:15;;;;;;;21.35;13.80;;;;;;;26.32;56.23;100695.69;5088986;28;20024;-74
2023/08/23 02:23:41;;;;;;;26.75;15.93;;;;;;;26.23;56.26;100677.75;5088591;28;20081;-74
2023/08/23 02:26:06;;;;;;;33.90;15.40;;;;;;;26.42;56.26;100700.69;5088737;28;20514;-74
2023/08/23 02:28:32;;;;;;;21.88;14.65;;;;;;;26.41;56.18;100693.47;5087598;28;20043;-74
2023/08/23 02:31:02;;;;;;;23.83;15.32;;;;;;;26.46;56.01;100701.91;5088615;28;20023;-74
2023/08/23 02:33:27;;;;;;;35.55;14.55;;;;;;;26.40;55.84;100686.28;5088909;28;20040;-74
2023/08/23 02:35:52;;;;;;;33.33;15.38;;;;;;;26.45;55.98;100705.75;5089032;28;20028;-74
2023/08/23 02:38:18;;;;;;;39.75;17.75;;;;;;;26.46;56.15;100699.16;5088689;28;20730;-73
2023/08/23 02:40:43;;;;;;;38.80;16.17;;;;;;;26.41;56.17;100696.25;5088822;28;20024;-74
2023/08/23 02:43:09;;;;;;;33.17;16.17;;;;;;;26.43;56.21;100696.84;5088621;28;20039;-74
2023/08/23 02:45:41;;;;;;;35.38;17.92;;;;;;;26.36;56.47;100701.59;5088503;28;20483;-79
2023/08/23 02:48:10;;;;;;;30.42;16.45;;;;;;;26.39;56.70;100712.19;5088251;28;20799;-75
2023/08/23 02:50:36;;;;;;;35.47;18.10;;;;;;;26.40;56.84;100702.81;5088682;28;20024;-74
2023/08/23 02:53:02;;;;;;;42.00;19.48;;;;;;;26.41;56.53;100710.03;5088357;28;20032;-73
2023/08/23 02:55:27;;;;;;;37.88;21.85;;;;;;;26.34;56.93;100699.06;5088601;28;20117;-75
2023/08/23 02:57:53;;;;;;;45.80;21.95;;;;;;;26.30;57.09;100695.06;5088472;28;20059;-74
2023/08/23 03:00:18;;;;;;;38.78;24.80;;;;;;;26.28;57.11;100705.47;5088771;28;20020;-74
2023/08/23 03:02:44;;;;;;;42.28;25.60;;;;;;;26.28;57.39;100699.09;5088637;28;20032;-75
2023/08/23 03:05:09;;;;;;;48.00;25.15;;;;;;;26.20;57.44;100691.13;5089728;28;20549;-73
2023/08/23 03:07:35;;;;;;;45.28;26.70;;;;;;;26.23;57.62;100707.22;5092243;28;20036;-75
2023/08/23 03:10:01;;;;;;;46.08;26.98;;;;;;;26.18;57.79;100704.28;5092057;28;20028;-74
2023/08/23 03:12:26;;;;;;;55.25;27.25;;;;;;;26.21;57.55;100715.72;5092251;28;20048;-74
2023/08/23 03:14:51;;;;;;;57.75;28.17;;;;;;;26.22;57.55;100716.56;5091987;28;20105;-75
2023/08/23 03:17:17;;;;;;;47.15;25.27;;;;;;;26.16;58.16;100717.47;5073012;28;20044;-74
2023/08/23 03:19:42;;;;;;;47.97;25.08;;;;;;;26.15;57.88;100722.13;5091689;28;20097;-74
2023/08/23 03:22:08;;;;;;;48.60;26.42;;;;;;;26.03;58.09;100712.00;5092218;28;20070;-74
2023/08/23 03:24:33;;;;;;;54.72;27.67;;;;;;;26.03;58.36;100712.00;5090173;28;20031;-75
2023/08/23 03:26:59;;;;;;;49.72;26.02;;;;;;;26.01;58.63;100715.00;5091878;28;20039;-74
2023/08/23 03:29:24;;;;;;;64.88;27.42;;;;;;;26.05;58.31;100716.25;5090889;28;20558;-73
2023/08/23 03:31:50;;;;;;;60.92;26.20;;;;;;;26.06;58.28;100717.91;5091654;28;20032;-74
2023/08/23 03:34:15;;;;;;;55.03;27.52;;;;;;;26.04;58.39;100708.19;5091722;28;20058;-74
2023/08/23 03:36:41;;;;;;;45.60;25.80;;;;;;;25.97;58.60;100709.06;5091764;28;20032;-73
2023/08/23 03:39:07;;;;;;;58.85;27.30;;;;;;;26.07;58.26;100714.09;5091309;28;20016;-74
2023/08/23 03:41:32;;;;;;;59.67;26.27;;;;;;;26.03;58.30;100712.00;5091564;28;20028;-73
2023/08/23 03:43:58;;;;;;;45.10;25.80;;;;;;;26.13;58.02;100717.88;5091880;28;20512;-73
2023/08/23 03:46:24;;;;;;;46.28;27.20;;;;;;;26.15;57.86;100715.72;5091238;28;20036;-74
2023/08/23 03:48:50;;;;;;;42.10;23.50;;;;;;;26.06;57.73;100695.88;5091399;28;20121;-75
2023/08/23 03:51:15;;;;;;;51.25;26.63;;;;;;;25.99;57.85;100687.63;5091599;28;20058;-74
2023/08/23 03:53:40;;;;;;;42.90;25.60;;;;;;;26.08;58.21;100702.00;5089776;28;20028;-75
2023/08/23 03:56:08;;;;;;;67.05;26.60;;;;;;;26.16;58.10;100714.69;5091279;28;20023;-75
2023/08/23 03:58:34;;;;;;;49.55;26.33;;;;;;;26.08;58.06;100698.41;5091493;28;20055;-75
2023/08/23 04:00:59;;;;;;;60.05;25.70;;;;;;;26.15;57.84;100708.34;5091520;28;20073;-75
2023/08/23 04:03:25;;;;;;;48.78;25.77;;;;;;;26.17;58.03;100716.41;5091294;28;20434;-74
2023/08/23 04:05:50;;;;;;;56.60;27.13;;;;;;;26.19;57.96;100719.75;5091254;28;20024;-74
2023/08/23 04:08:16;;;;;;;45.60;24.38;;;;;;;26.09;57.73;100700.06;5090824;28;20031;-73
2023/08/23 04:10:51;;;;;;;49.40;24.52;;;;;;;26.21;57.71;100706.59;5090672;28;20021;-74
2023/08/23 04:13:17;;;;;;;44.53;23.58;;;;;;;26.30;57.82;100724.53;5090977;28;20139;-75
2023/08/23 04:15:44;;;;;;;53.35;24.02;;;;;;;26.27;57.40;100725.84;5090850;28;20032;-74
2023/08/23 04:18:10;;;;;;;45.17;22.65;;;;;;;26.27;57.24;100717.56;5090416;28;20031;-75
2023/08/23 04:20:38;;;;;;;36.28;21.42;;;;;;;26.30;57.50;100725.38;5091206;28;20020;-74
2023/08/23 04:23:05;;;;;;;41.83;20.10;;;;;;;26.36;57.38;100734.69;5090346;28;20100;-76
2023/08/23 04:25:30;;;;;;;45.47;20.17;;;;;;;26.10;57.03;100685.25;5089602;28;20039;-74
2023/08/23 04:27:56;;;;;;;42.92;20.60;;;;;;;26.34;57.11;100720.28;5091005;28;20024;-75
2023/08/23 04:30:21;;;;;;;41.05;20.70;;;;;;;26.37;56.86;100722.59;5090647;28;20034;-76
2023/08/23 04:32:47;;;;;;;40.75;18.85;;;;;;;26.46;57.00;100737.78;5090716;28;20414;-79
2023/08/23 04:35:12;;;;;;;49.50;19.95;;;;;;;26.36;57.00;100716.22;5090512;28;20027;-77
2023/08/23 04:37:38;;;;;;;54.78;23.27;;;;;;;26.46;56.72;100732.25;5090160;28;20031;-78
2023/08/23 04:40:06;;;;;;;49.90;23.42;;;;;;;26.47;56.21;100731.19;5090421;28;20467;-80
2023/08/23 04:42:32;;;;;;;53.60;22.88;;;;;;;26.54;55.97;100743.03;5089772;28;20127;-78
2023/08/23 04:45:01;;;;;;;55.58;22.33;;;;;;;26.53;55.82;100735.81;5090615;28;20044;-77
2023/08/23 04:47:30;;;;;;;62.55;25.67;;;;;;;26.57;55.88;100741.72;5090073;28;20028;-75
2023/08/23 04:49:56;;;;;;;60.20;25.85;;;;;;;26.63;55.65;100752.72;5090583;28;20028;-76
2023/08/23 04:52:21;;;;;;;60.85;28.20;;;;;;;26.40;55.54;100702.81;5089906;28;20467;-76
2023/08/23 04:54:47;;;;;;;58.38;27.35;;;;;;;26.66;55.40;100740.38;5090298;28;20533;-74
2023/08/23 04:57:12;;;;;;;58.67;29.33;;;;;;;26.67;55.10;100729.09;5090502;28;20056;-75
2023/08/23 04:59:38;;;;;;;76.88;30.20;;;;;;;26.76;55.36;100740.66;5090692;28;20043;-80
2023/08/23 05:02:04;;;;;;;68.05;30.10;;;;;;;26.79;55.11;100741.06;5091172;28;20063;-77
2023/08/23 05:04:29;;;;;;;75.63;29.08;;;;;;;26.68;54.79;100716.97;5090403;28;20086;-78
2023/08/23 05:06:55;;;;;;;79.43;28.92;;;;;;;26.97;54.69;100743.88;5087193;28;20043;-77
2023/08/23 05:09:20;;;;;;;63.45;30.90;;;;;;;27.00;54.58;100732.38;5089597;28;20024;-74
2023/08/23 05:11:46;;;;;;;69.15;30.77;;;;;;;27.19;54.53;100741.50;5089673;28;20078;-77
2023/08/23 05:14:12;;;;;;;79.25;30.73;;;;;;;27.36;54.30;100753.63;5090011;28;20031;-76
2023/08/23 05:16:37;;;;;;;75.50;33.17;;;;;;;27.48;53.68;100750.97;5089586;28;20035;-77
2023/08/23 05:19:02;;;;;;;72.78;29.77;;;;;;;27.50;52.94;100733.06;5089704;28;20028;-75
2023/08/23 05:21:28;;;;;;;59.20;30.58;;;;;;;27.64;52.90;100725.47;5089496;28;20024;-75
2023/08/23 05:23:53;;;;;;;51.83;31.98;;;;;;;27.83;52.36;100738.13;5089928;28;20027;-77
2023/08/23 05:26:19;;;;;;;76.88;41.90;;;;;;;28.03;51.79;100744.22;5089353;28;20043;-78
2023/08/23 05:28:44;;;;;;;73.20;44.20;;;;;;;28.14;51.37;100739.81;5088986;28;20032;-78
2023/08/23 05:31:10;;;;;;;57.70;33.53;;;;;;;28.22;51.15;100739.50;5089027;28;20032;-76
2023/08/23 05:33:35;;;;;;;61.47;31.58;;;;;;;28.37;50.62;100750.94;5088401;28;20055;-77
2023/08/23 05:36:01;;;;;;;65.40;32.67;;;;;;;28.40;50.27;100733.03;5089272;28;20055;-79
2023/08/23 05:38:28;;;;;;;65.70;33.72;;;;;;;28.54;50.43;100740.00;5089802;28;20032;-78
2023/08/23 05:40:54;;;;;;;79.65;31.70;;;;;;;28.56;50.42;100735.09;5089093;28;20039;-78
2023/08/23 05:43:19;;;;;;;60.50;31.25;;;;;;;28.60;50.35;100745.44;5089389;28;20028;-79
2023/08/23 05:45:44;;;;;;;64.75;33.15;;;;;;;28.58;50.29;100724.63;5089047;28;20024;-77
2023/08/23 05:48:10;;;;;;;65.15;31.50;;;;;;;28.72;50.38;100742.69;5088714;28;20165;-76
2023/08/23 05:50:36;;;;;;;71.70;33.83;;;;;;;28.69;49.89;100732.09;5089025;28;20389;-78
2023/08/23 05:53:04;;;;;;;60.22;32.22;;;;;;;28.71;50.21;100735.50;5089406;28;20507;-75
2023/08/23 05:55:29;;;;;;;69.47;32.33;;;;;;;28.75;50.44;100725.59;5089306;28;20035;-74
2023/08/23 05:57:55;;;;;;;78.90;35.30;;;;;;;28.88;50.54;100741.97;5089100;28;20444;-74
2023/08/23 06:00:21;;;;;;;70.10;35.88;;;;;;;28.79;50.19;100729.56;5088622;28;20107;-76
2023/08/23 06:02:46;;;;;;;67.20;34.05;;;;;;;28.87;49.95;100739.44;5088178;28;20410;-76
2023/08/23 06:05:13;;;;;;;66.82;32.08;;;;;;;28.91;49.99;100735.94;5088953;28;20020;-73
2023/08/23 06:07:39;;;;;;;51.67;31.30;;;;;;;28.83;50.13;100716.94;5088650;28;20039;-74
2023/08/23 06:10:05;;;;;;;55.92;28.67;;;;;;;29.01;49.63;100730.66;5088739;28;20020;-74
2023/08/23 06:12:31;;;;;;;59.78;28.05;;;;;;;29.11;49.43;100728.06;5087898;28;20043;-73
2023/08/23 06:14:56;;;;;;;76.00;26.58;;;;;;;29.23;49.55;100733.63;5087604;28;20055;-73
2023/08/23 06:17:22;;;;;;;76.47;26.73;;;;;;;29.24;49.75;100717.84;5088488;28;20502;-74
2023/08/23 06:19:47;;;;;;;61.97;25.23;;;;;;;29.35;50.18;100733.63;5088087;28;20058;-73
2023/08/23 06:22:13;;;;;;;52.60;25.92;;;;;;;29.42;49.90;100734.28;5089041;28;20493;-77
2023/08/23 06:24:38;;;;;;;55.42;24.73;;;;;;;29.46;50.20;100722.50;5089077;28;20035;-75
2023/08/23 06:27:04;;;;;;;58.72;24.83;;;;;;;29.55;49.57;100731.25;5089149;28;20451;-73
2023/08/23 06:29:29;;;;;;;80.18;29.55;;;;;;;29.66;50.10;100730.38;5090030;28;20600;-75
2023/08/23 06:31:55;;;;;;;70.10;29.08;;;;;;;29.69;49.97;100725.16;5096161;28;20077;-74
2023/08/23 06:34:20;;;;;;;57.15;28.50;;;;;;;29.90;49.93;100740.31;5099140;28;20032;-74
2023/08/23 06:36:46;;;;;;;62.10;26.15;;;;;;;29.92;49.38;100735.34;5098805;28;20407;-76
2023/08/23 06:39:11;;;;;;;78.65;33.80;;;;;;;30.03;49.61;100739.16;5090571;28;20115;-76
2023/08/23 06:41:37;;;;;;;67.32;27.55;;;;;;;29.99;49.12;100721.31;5093870;28;20458;-75
2023/08/23 06:44:03;;;;;;;67.60;23.52;;;;;;;30.21;48.67;100742.53;5093794;28;20547;-74
2023/08/23 06:46:29;;;;;;;57.30;25.88;;;;;;;30.14;48.09;100725.22;5073931;28;20094;-77
2023/08/23 06:48:55;;;;;;;97.85;40.17;;;;;;;30.37;47.96;100743.63;5092543;28;20032;-75
2023/08/23 06:51:21;;;;;;;90.18;35.33;;;;;;;30.51;47.78;100746.94;5093174;28;20028;-74
2023/08/23 06:53:48;;;;;;;81.75;31.85;;;;;;;30.53;47.22;100747.53;5093202;28;20043;-75
2023/08/23 06:56:13;;;;;;;58.17;25.10;;;;;;;30.63;47.09;100739.38;5092353;28;20035;-74
2023/08/23 06:58:39;;;;;;;35.80;18.73;;;;;;;30.61;46.69;100738.81;5091816;28;20403;-76
2023/08/23 07:01:07;;;;;;;43.28;17.95;;;;;;;30.76;46.58;100756.50;5091995;28;20035;-78
2023/08/23 07:03:32;;;;;;;28.40;16.67;;;;;;;30.79;46.07;100734.91;5072373;28;20059;-77
2023/08/23 07:05:58;;;;;;;35.40;17.92;;;;;;;30.96;45.52;100755.19;5092472;28;20024;-79
2023/08/23 07:08:24;;;;;;;43.65;18.40;;;;;;;30.96;45.46;100746.84;5091997;28;20045;-77
2023/08/23 07:10:49;;;;;;;39.97;18.77;;;;;;;31.17;44.99;100758.00;5090791;28;20024;-78
2023/08/23 07:13:15;;;;;;;38.17;14.38;;;;;;;31.22;44.29;100766.38;5090681;28;20044;-77
2023/08/23 07:15:40;;;;;;;31.90;13.63;;;;;;;31.00;44.24;100746.09;5091831;28;20581;-77
2023/08/23 07:18:08;;;;;;;32.45;15.48;;;;;;;31.15;43.73;100737.97;5092007;28;20028;-77
2023/08/23 07:20:33;;;;;;;30.63;15.45;;;;;;;31.31;43.79;100729.81;5091700;28;20043;-77
2023/08/23 07:22:59;;;;;;;41.20;15.13;;;;;;;31.64;43.19;100754.72;5091764;28;20032;-78
2023/08/23 07:25:24;;;;;;;20.00;13.05;;;;;;;31.79;42.66;100766.88;5091406;28;20514;-77
2023/08/23 07:27:50;;;;;;;46.97;14.27;;;;;;;31.58;42.84;100745.50;5091544;28;20024;-76
2023/08/23 07:30:16;;;;;;;30.23;14.90;;;;;;;31.63;42.57;100761.38;5091709;28;20024;-80
2023/08/23 07:32:42;;;;;;;29.98;12.32;;;;;;;31.87;42.16;100751.66;5091324;28;20028;-77
2023/08/23 07:35:08;;;;;;;33.45;12.07;;;;;;;32.00;42.16;100745.66;5091646;28;20080;-77
2023/08/23 07:37:34;;;;;;;27.67;12.70;;;;;;;32.11;41.39;100758.59;5091645;28;20051;-76
2023/08/23 07:39:59;;;;;;;22.85;10.88;;;;;;;32.11;40.67;100741.91;5091453;28;20092;-79
2023/08/23 07:42:25;;;;;;;21.00;10.75;;;;;;;32.29;40.76;100744.28;5091344;28;20107;-77
2023/08/23 07:44:51;;;;;;;24.27;11.98;;;;;;;32.15;40.72;100726.38;5099333;28;20040;-76
2023/08/23 07:47:17;;;;;;;33.85;13.52;;;;;;;32.20;41.31;100731.97;5091163;28;20081;-78
2023/08/23 07:49:42;;;;;;;19.42;13.20;;;;;;;32.19;41.87;100733.09;5091376;28;20028;-78
2023/08/23 07:52:08;;;;;;;25.25;11.77;;;;;;;31.94;41.96;100702.19;5090978;28;20028;-76
2023/08/23 07:54:34;;;;;;;29.05;11.77;;;;;;;32.10;41.95;100734.69;5091080;28;20107;-77
2023/08/23 07:57:00;;;;;;;16.70;11.13;;;;;;;31.91;42.13;100727.78;5091198;28;20028;-76
2023/08/23 07:59:25;;;;;;;25.05;11.82;;;;;;;31.93;42.49;100733.06;5090685;28;20027;-76
2023/08/23 08:01:50;;;;;;;22.65;12.15;;;;;;;31.58;43.48;100725.19;5089013;28;20399;-74
2023/08/23 08:04:16;;;;;;;14.07;10.65;;;;;;;31.50;43.89;100740.38;5091318;28;20035;-74
2023/08/23 08:06:41;;;;;;;28.20;11.80;;;;;;;31.48;44.33;100733.38;5090379;28;20028;-75
2023/08/23 08:09:07;;;;;;;29.40;12.80;;;;;;;31.47;44.51;100734.44;5090906;28;20495;-74
2023/08/23 08:11:32;;;;;;;28.95;11.98;;;;;;;31.47;45.35;100738.06;5090824;28;20052;-76
2023/08/23 08:13:57;;;;;;;32.92;13.80;;;;;;;31.39;46.05;100737.69;5090562;28;20453;-72
2023/08/23 08:16:23;;;;;;;37.63;11.85;;;;;;;31.41;46.29;100724.38;5090263;28;20020;-73
2023/08/23 08:18:48;;;;;;;15.73;12.25;;;;;;;31.55;45.20;100742.38;5091309;28;20024;-75
2023/08/23 08:21:14;;;;;;;19.65;11.60;;;;;;;31.49;45.20;100738.72;5090633;28;20032;-76
2023/08/23 08:23:40;;;;;;;24.98;11.20;;;;;;;31.54;45.06;100735.13;5090929;28;20023;-76
2023/08/23 08:26:06;;;;;;;36.83;11.82;;;;;;;31.66;44.63;100741.41;5090323;28;20511;-74
2023/08/23 08:28:32;;;;;;;18.38;12.15;;;;;;;31.69;44.71;100738.09;5090261;28;20029;-75
2023/08/23 08:30:57;;;;;;;33.15;12.60;;;;;;;31.79;44.55;100750.19;5090512;28;20135;-78
2023/08/23 08:33:23;;;;;;;30.45;12.13;;;;;;;31.65;44.56;100731.41;5089188;28;20028;-76
2023/08/23 08:35:48;;;;;;;30.13;12.15;;;;;;;31.80;44.39;100729.59;5090766;28;20102;-78
2023/08/23 08:38:14;;;;;;;18.00;10.18;;;;;;;31.80;44.04;100737.94;5090510;28;20379;-79
2023/08/23 08:40:39;;;;;;;29.25;10.90;;;;;;;32.02;44.37;100742.59;5090705;28;20445;-78
2023/08/23 08:43:05;;;;;;;23.17;10.20;;;;;;;32.05;44.01;100736.59;5090620;28;20492;-78
2023/08/23 08:45:31;;;;;;;21.73;11.77;;;;;;;32.07;43.99;100718.50;5090236;28;20077;-78
2023/08/23 08:47:57;;;;;;;23.25;12.13;;;;;;;32.20;43.72;100731.16;5090127;28;20016;-79
2023/08/23 08:50:30;;;;;;;24.77;10.48;;;;;;;32.33;42.06;100745.47;5088787;28;20024;-78
2023/08/23 08:52:58;;;;;;;23.50;10.73;;;;;;;32.24;44.12;100730.34;5089871;28;20021;-78
2023/08/23 08:55:24;;;;;;;26.77;11.73;;;;;;;32.20;45.53;100729.19;5089630;28;20056;-80
2023/08/23 08:57:53;;;;;;;28.17;10.93;;;;;;;32.13;45.16;100711.88;5090018;28;20062;-78
2023/08/23 09:00:22;;;;;;;26.17;11.13;;;;;;;31.77;45.62;100651.41;5089808;28;20396;-80
2023/08/23 09:02:52;;;;;;;20.25;11.55;;;;;;;32.27;45.71;100734.53;5088948;28;20035;-80
2023/08/23 09:05:20;;;;;;;25.67;10.88;;;;;;;32.09;45.66;100716.28;5053631;28;20507;-79
2023/08/23 09:07:46;;;;;;;29.40;10.75;;;;;;;32.01;44.99;100674.16;5089497;28;20471;-79
2023/08/23 09:10:13;;;;;;;19.10;10.32;;;;;;;32.48;43.25;100727.19;5089623;28;20024;-78
2023/08/23 09:12:39;;;;;;;25.00;11.38;;;;;;;32.64;43.97;100726.25;5089807;28;20051;-77
2023/08/23 09:15:05;;;;;;;38.53;11.23;;;;;;;32.80;43.46;100722.47;5089285;28;20954;-78
2023/08/23 09:17:33;;;;;;;22.00;10.70;;;;;;;32.67;43.19;100675.56;5088406;28;20024;-80
2023/08/23 09:19:59;;;;;;;16.02;10.07;;;;;;;32.84;43.97;100710.50;5089456;28;20027;-80
2023/08/23 09:22:25;;;;;;;24.33;11.65;;;;;;;32.90;44.49;100718.91;5066074;28;20515;-79
2023/08/23 09:24:50;;;;;;;27.58;11.45;;;;;;;32.88;44.11;100714.41;5066626;28;20042;-79
2023/08/23 09:27:16;;;;;;;18.40;10.18;;;;;;;32.84;44.34;100715.25;5066048;28;20045;-79
2023/08/23 09:29:43;;;;;;;17.23;10.65;;;;;;;32.72;44.22;100692.31;5066437;28;20172;-78
2023/08/23 09:32:09;;;;;;;31.77;12.38;;;;;;;32.90;44.13;100710.53;5066396;28;20052;-78
2023/08/23 09:34:34;;;;;;;17.50;11.10;;;;;;;32.79;43.43;100685.38;5066438;28;20483;-79
2023/08/23 09:37:06;;;;;;;14.85;10.32;;;;;;;32.88;43.12;100691.28;5066732;28;20436;-78
2023/08/23 09:39:32;;;;;;;16.58;10.35;;;;;;;33.02;42.49;100692.50;5066823;28;20070;-79
2023/08/23 09:42:03;;;;;;;25.40;10.38;;;;;;;33.00;42.02;100686.34;5067429;28;20037;-80
2023/08/23 09:44:40;;;;;;;30.73;23.40;;;;;;;33.25;41.52;100686.47;5050213;28;20025;-79
2023/08/23 09:47:13;;;;;;;14.32;9.07;;;;;;;33.31;40.65;100693.75;5006594;28;20160;-78
2023/08/23 09:49:42;;;;;;;25.40;9.48;;;;;;;33.41;40.85;100684.59;5007134;28;20485;-80
2023/08/23 09:52:09;;;;;;;14.48;8.63;;;;;;;33.41;40.96;100679.00;5006873;28;20556;-79
2023/08/23 09:55:00;;;;;;;27.35;10.05;;;;;;;33.24;40.49;100620.66;5006918;28;20048;-78
2023/08/23 09:57:25;;;;;;;18.83;9.77;;;;;;;33.66;40.65;100686.66;5006684;28;20539;-78
2023/08/23 09:59:51;;;;;;;20.20;9.23;;;;;;;33.65;40.53;100671.00;5026542;28;20116;-81
2023/08/23 10:02:18;;;;;;;29.52;10.45;;;;;;;33.66;40.73;100681.06;5046349;28;20063;-79
2023/08/23 10:04:44;;;;;;;18.15;9.43;;;;;;;33.68;41.18;100684.41;5046587;28;20040;-78
2023/08/23 10:07:13;;;;;;;15.48;9.10;;;;;;;33.83;40.91;100676.91;5046251;28;20041;-80
2023/08/23 10:09:40;;;;;;;21.02;9.65;;;;;;;33.64;40.16;100650.63;5046464;28;20167;-79
2023/08/23 10:12:07;;;;;;;25.05;9.15;;;;;;;33.79;39.91;100652.63;5045883;28;20118;-79
2023/08/23 10:14:36;;;;;;;26.83;9.32;;;;;;;33.90;39.48;100677.47;5046105;28;20040;-78
2023/08/23 10:17:04;;;;;;;11.75;8.35;;;;;;;33.89;39.44;100661.84;5028013;28;20141;-79
2023/08/23 10:19:30;;;;;;;16.80;8.80;;;;;;;34.06;38.62;100681.13;5066191;28;20155;-79
2023/08/23 10:21:58;;;;;;;13.25;8.05;;;;;;;34.16;38.50;100675.56;5066434;28;20044;-82
2023/08/23 10:24:30;;;;;;;16.30;8.98;;;;;;;34.27;38.19;100673.63;5066362;28;20032;-80
2023/08/23 10:26:56;;;;;;;24.63;9.35;;;;;;;34.43;37.29;100667.72;5065919;28;20047;-80
2023/08/23 10:29:28;;;;;;;18.27;7.80;;;;;;;34.23;37.10;100637.03;5066275;28;20396;-81
2023/08/23 10:31:55;;;;;;;14.68;8.75;;;;;;;34.39;37.00;100647.06;5066243;28;20573;-79
2023/08/23 10:34:24;;;;;;;11.30;7.32;;;;;;;34.21;37.41;100656.03;5065875;28;20028;-76
2023/08/23 10:36:50;;;;;;;26.02;9.73;;;;;;;34.24;38.64;100672.22;5063689;28;20090;-75
2023/08/23 10:39:16;;;;;;;19.30;9.70;;;;;;;34.18;39.44;100670.56;5065748;28;20119;-78
2023/08/23 10:41:41;;;;;;;11.93;8.63;;;;;;;34.09;39.21;100663.81;5065818;28;20527;-77
2023/08/23 10:44:16;;;;;;;24.35;10.80;;;;;;;33.91;39.49;100642.84;5065347;28;20103;-81
2023/08/23 10:46:45;;;;;;;24.83;9.25;;;;;;;34.06;40.20;100664.38;5066197;28;20040;-79
2023/08/23 10:49:14;;;;;;;15.73;9.43;;;;;;;33.81;40.17;100642.88;5087612;28;20028;-76
2023/08/23 10:51:43;;;;;;;26.52;9.75;;;;;;;33.90;40.68;100666.31;5089011;28;20028;-76
2023/08/23 10:54:13;;;;;;;16.77;8.82;;;;;;;33.80;40.86;100662.66;5088510;28;20024;-76
2023/08/23 10:56:38;;;;;;;19.17;9.50;;;;;;;33.46;42.96;100664.22;5088484;28;20039;-76
2023/08/23 10:59:06;;;;;;;18.90;10.27;;;;;;;33.48;43.50;100656.44;5088029;28;20032;-73
2023/08/23 11:01:37;;;;;;;20.70;10.27;;;;;;;33.25;45.17;100635.44;5088197;28;20016;-80
2023/08/23 11:04:05;;;;;;;16.47;9.73;;;;;;;33.30;46.39;100644.66;5088906;28;20028;-76
2023/08/23 11:06:32;;;;;;;17.48;10.02;;;;;;;33.18;46.19;100649.66;5088507;28;20027;-75